Time;durP1;ratioP1;P1;durP2;ratioP2;P2;SDS_P1;SDS_P2;PMS_P1;PMS_P2;Temp;Humidity;BMP_temperature;BMP_pressure;BME280_temperature;BME280_humidity;BME280_pressure;Samples;Min_cycle;Max_cycle;Signal;HPM_P1;HPM_P2
2023/10/07 00:01:00;;;;;;;0.80;0.80;;;;;;;;;;5113732;28;20506;-65
2023/10/07 00:03:29;;;;;;;0.80;0.80;;;;;;;;;;5114662;28;20446;-65
2023/10/07 00:06:01;;;;;;;0.73;0.73;;;;;;;;;;5113531;28;20450;-65
2023/10/07 00:08:28;;;;;;;0.80;0.80;;;;;;;;;;5113980;28;20483;-65
2023/10/07 00:10:58;;;;;;;0.80;0.80;;;;;;;;;;5113695;28;20478;-64
2023/10/07 00:13:30;;;;;;;0.80;0.80;;;;;;;;;;5113197;28;20560;-65
2023/10/07 00:15:58;;;;;;;0.80;0.80;;;;;;;;;;5113866;28;20430;-65
2023/10/07 00:18:26;;;;;;;7.60;2.10;;;;;;;;;;5113873;28;20768;-65
2023/10/07 00:20:54;;;;;;;1.00;1.00;;;;;;;;;;5113677;28;20784;-65
2023/10/07 00:23:22;;;;;;;0.80;0.80;;;;;;;;;;5113349;28;20427;-65
2023/10/07 00:25:50;;;;;;;1.13;1.13;;;;;;;;;;5113359;28;20442;-65
2023/10/07 00:28:24;;;;;;;0.80;0.80;;;;;;;;;;5113451;28;20556;-65
2023/10/07 00:30:55;;;;;;;1.00;1.00;;;;;;;;;;5113756;28;20462;-65
2023/10/07 00:33:23;;;;;;;0.80;0.80;;;;;;;;;;5113352;28;20435;-65
2023/10/07 00:35:53;;;;;;;0.80;0.80;;;;;;;;;;5113895;28;20549;-65
2023/10/07 00:38:22;;;;;;;1.30;1.20;;;;;;;;;;5113264;28;20426;-65
2023/10/07 00:40:52;;;;;;;0.90;0.90;;;;;;;;;;5113201;28;20478;-65
2023/10/07 00:43:30;;;;;;;1.00;0.90;;;;;;;;;;5113238;28;20522;-65
2023/10/07 00:46:06;;;;;;;0.80;0.80;;;;;;;;;;5114103;28;20486;-65
2023/10/07 00:48:45;;;;;;;0.90;0.90;;;;;;;;;;5113023;28;20477;-65
2023/10/07 00:51:13;;;;;;;0.80;0.80;;;;;;;;;;5113626;28;20560;-65
2023/10/07 00:53:46;;;;;;;0.80;0.80;;;;;;;;;;5113030;28;20954;-65
2023/10/07 00:56:15;;;;;;;0.80;0.80;;;;;;;;;;5113695;28;20426;-65
2023/10/07 00:58:46;;;;;;;1.10;1.10;;;;;;;;;;5113007;28;20477;-65
2023/10/07 01:01:14;;;;;;;0.90;0.90;;;;;;;;;;5113014;28;20469;-65
2023/10/07 01:03:55;;;;;;;0.80;0.80;;;;;;;;;;5113203;28;20506;-65
2023/10/07 01:06:31;;;;;;;0.80;0.80;;;;;;;;;;5113606;28;20436;-65
2023/10/07 01:09:08;;;;;;;0.70;0.70;;;;;;;;;;5113304;28;20426;-66
2023/10/07 01:11:39;;;;;;;1.67;1.57;;;;;;;;;;5112664;28;20458;-65
2023/10/07 01:14:11;;;;;;;0.90;0.90;;;;;;;;;;5113600;28;20454;-64
2023/10/07 01:16:47;;;;;;;0.90;0.90;;;;;;;;;;5112784;28;20511;-65
2023/10/07 01:19:29;;;;;;;0.90;0.90;;;;;;;;;;5112925;28;20972;-65
2023/10/07 01:22:05;;;;;;;0.80;0.80;;;;;;;;;;5113157;28;20419;-65
2023/10/07 01:24:49;;;;;;;0.80;0.80;;;;;;;;;;5113623;28;20816;-65
2023/10/07 01:27:29;;;;;;;0.80;0.80;;;;;;;;;;5117397;28;20418;-65
2023/10/07 01:30:06;;;;;;;1.33;1.23;;;;;;;;;;5117180;28;20506;-65
2023/10/07 01:32:34;;;;;;;0.80;0.80;;;;;;;;;;5117466;28;20837;-65
2023/10/07 01:35:05;;;;;;;2.10;1.17;;;;;;;;;;5117384;28;20517;-65
2023/10/07 01:37:41;;;;;;;0.80;0.80;;;;;;;;;;5116981;28;20433;-65
2023/10/07 01:40:16;;;;;;;0.80;0.80;;;;;;;;;;5117095;28;20433;-65
2023/10/07 01:42:44;;;;;;;2.63;2.50;;;;;;;;;;5116559;28;20421;-65
2023/10/07 01:45:20;;;;;;;0.80;0.80;;;;;;;;;;5116425;28;20445;-65
2023/10/07 01:47:48;;;;;;;1.00;1.00;;;;;;;;;;5117133;28;20526;-65
2023/10/07 01:50:18;;;;;;;0.70;0.70;;;;;;;;;;5117228;28;20477;-65
2023/10/07 01:52:48;;;;;;;0.70;0.70;;;;;;;;;;5117197;28;20441;-65
2023/10/07 01:55:17;;;;;;;0.80;0.80;;;;;;;;;;5116529;28;20802;-65
2023/10/07 01:57:45;;;;;;;0.80;0.80;;;;;;;;;;5116389;28;20887;-65
2023/10/07 02:00:13;;;;;;;1.50;1.40;;;;;;;;;;5116413;28;20453;-65
2023/10/07 02:02:49;;;;;;;0.80;0.80;;;;;;;;;;5116251;28;20438;-65
2023/10/07 02:05:21;;;;;;;2.80;2.60;;;;;;;;;;5116693;28;20449;-65
2023/10/07 02:07:53;;;;;;;0.80;0.80;;;;;;;;;;5115989;28;20427;-65
2023/10/07 02:10:26;;;;;;;3.10;2.70;;;;;;;;;;5115708;28;21043;-65
2023/10/07 02:12:54;;;;;;;1.90;1.80;;;;;;;;;;5116277;28;20783;-65
2023/10/07 02:15:21;;;;;;;1.13;1.07;;;;;;;;;;5116154;28;20442;-65
2023/10/07 02:17:49;;;;;;;1.30;1.20;;;;;;;;;;5116602;28;20438;-65
2023/10/07 02:20:25;;;;;;;0.70;0.70;;;;;;;;;;5115681;28;20532;-65
2023/10/07 02:22:52;;;;;;;0.90;0.90;;;;;;;;;;5116305;28;20429;-66
2023/10/07 02:25:29;;;;;;;0.70;0.70;;;;;;;;;;5115960;28;20439;-66
2023/10/07 02:27:57;;;;;;;0.87;0.87;;;;;;;;;;5115512;28;20958;-65
2023/10/07 02:30:27;;;;;;;0.80;0.80;;;;;;;;;;5115759;28;20567;-66
2023/10/07 02:32:55;;;;;;;0.97;0.97;;;;;;;;;;5115389;28;20511;-65
2023/10/07 02:35:30;;;;;;;1.77;1.37;;;;;;;;;;5115690;28;20477;-65
2023/10/07 02:38:02;;;;;;;0.80;0.80;;;;;;;;;;5115599;28;20433;-65
2023/10/07 02:40:36;;;;;;;0.70;0.70;;;;;;;;;;5115923;28;20856;-65
2023/10/07 02:43:07;;;;;;;0.93;0.93;;;;;;;;;;5115620;28;20452;-65
2023/10/07 02:45:41;;;;;;;1.70;0.90;;;;;;;;;;5115754;28;20480;-65
2023/10/07 02:48:10;;;;;;;0.80;0.80;;;;;;;;;;5115737;28;20555;-65
2023/10/07 02:50:39;;;;;;;1.03;1.03;;;;;;;;;;5115118;28;20482;-65
2023/10/07 02:53:12;;;;;;;0.80;0.80;;;;;;;;;;5115059;28;20453;-65
2023/10/07 02:55:47;;;;;;;0.80;0.80;;;;;;;;;;5115162;28;20426;-65
2023/10/07 02:58:27;;;;;;;0.90;0.90;;;;;;;;;;5115466;28;20446;-65
2023/10/07 03:00:58;;;;;;;1.10;1.10;;;;;;;;;;5115331;28;20430;-66
2023/10/07 03:03:38;;;;;;;0.80;0.80;;;;;;;;;;5115662;28;20422;-66
2023/10/07 03:06:06;;;;;;;0.80;0.80;;;;;;;;;;5115318;28;20418;-66
2023/10/07 03:08:43;;;;;;;0.80;0.80;;;;;;;;;;5114920;28;20517;-66
2023/10/07 03:11:12;;;;;;;0.70;0.70;;;;;;;;;;5115246;28;20473;-66
2023/10/07 03:13:45;;;;;;;0.70;0.70;;;;;;;;;;5114923;28;20441;-66
2023/10/07 03:16:35;;;;;;;0.80;0.80;;;;;;;;;;5114665;28;20497;-66
2023/10/07 03:19:19;;;;;;;0.80;0.80;;;;;;;;;;5114848;28;20453;-66
2023/10/07 03:21:58;;;;;;;0.73;0.73;;;;;;;;;;5115315;28;20528;-66
2023/10/07 03:24:41;;;;;;;0.80;0.80;;;;;;;;;;5114405;28;20461;-65
2023/10/07 03:27:11;;;;;;;0.97;0.97;;;;;;;;;;5115492;28;20414;-65
2023/10/07 03:29:57;;;;;;;0.93;0.93;;;;;;;;;;5114819;28;21003;-66
2023/10/07 03:32:25;;;;;;;0.80;0.80;;;;;;;;;;5114746;28;20477;-65
2023/10/07 03:34:52;;;;;;;1.73;1.63;;;;;;;;;;5111875;28;20492;-65
2023/10/07 03:37:19;;;;;;;0.70;0.70;;;;;;;;;;5093404;28;20481;-65
2023/10/07 03:40:04;;;;;;;1.10;1.10;;;;;;;;;;5093435;28;20851;-65
2023/10/07 03:42:33;;;;;;;1.77;1.67;;;;;;;;;;5113847;28;20438;-65
2023/10/07 03:45:02;;;;;;;1.20;1.10;;;;;;;;;;5113191;28;20442;-66
2023/10/07 03:47:32;;;;;;;0.70;0.70;;;;;;;;;;5113409;28;20950;-65
2023/10/07 03:49:59;;;;;;;1.00;1.00;;;;;;;;;;5113620;28;20765;-65
2023/10/07 03:52:28;;;;;;;0.70;0.70;;;;;;;;;;5113296;28;21018;-65
2023/10/07 03:54:57;;;;;;;0.80;0.80;;;;;;;;;;5113180;28;20442;-65
2023/10/07 03:57:24;;;;;;;1.67;1.30;;;;;;;;;;5113870;28;20446;-65
2023/10/07 03:59:53;;;;;;;1.53;1.43;;;;;;;;;;5113613;28;20449;-65
2023/10/07 04:02:35;;;;;;;1.37;1.27;;;;;;;;;;5113843;28;20448;-64
2023/10/07 04:05:10;;;;;;;1.07;1.07;;;;;;;;;;5112981;28;20430;-65
2023/10/07 04:07:37;;;;;;;0.70;0.70;;;;;;;;;;5113473;28;20512;-65
2023/10/07 04:10:15;;;;;;;0.70;0.70;;;;;;;;;;5113410;28;20517;-65
2023/10/07 04:12:44;;;;;;;1.53;1.43;;;;;;;;;;5113710;28;20469;-65
2023/10/07 04:15:12;;;;;;;0.80;0.80;;;;;;;;;;5113315;28;20452;-65
2023/10/07 04:17:42;;;;;;;1.13;0.97;;;;;;;;;;5113710;28;20612;-65
2023/10/07 04:20:18;;;;;;;0.90;0.90;;;;;;;;;;5113828;28;20432;-65
2023/10/07 04:22:45;;;;;;;0.80;0.80;;;;;;;;;;5113868;28;20508;-65
2023/10/07 04:25:17;;;;;;;3.57;3.33;;;;;;;;;;5113083;28;20461;-65
2023/10/07 04:27:44;;;;;;;0.80;0.80;;;;;;;;;;5113715;28;20449;-65
2023/10/07 04:30:14;;;;;;;1.93;1.83;;;;;;;;;;5113412;28;20525;-65
2023/10/07 04:32:52;;;;;;;0.80;0.80;;;;;;;;;;5113689;28;20835;-65
2023/10/07 04:35:26;;;;;;;0.90;0.90;;;;;;;;;;5113387;28;20487;-65
2023/10/07 04:37:59;;;;;;;0.70;0.70;;;;;;;;;;5113376;28;20425;-65
2023/10/07 04:43:36;;;;;;;0.80;0.80;;;;;;;;;;5113311;28;20424;-65
2023/10/07 04:46:12;;;;;;;1.10;1.10;;;;;;;;;;5112929;28;20433;-65
2023/10/07 04:48:54;;;;;;;1.00;0.93;;;;;;;;;;5113092;28;20826;-65
2023/10/07 04:51:46;;;;;;;0.70;0.70;;;;;;;;;;5112709;28;20674;-65
2023/10/07 04:54:11;;;;;;;0.80;0.80;;;;;;;;;;5113002;28;20535;-65
2023/10/07 04:56:39;;;;;;;0.77;0.77;;;;;;;;;;5112919;28;20433;-65
2023/10/07 04:59:06;;;;;;;0.97;0.97;;;;;;;;;;5113018;28;20822;-65
2023/10/07 05:01:33;;;;;;;1.53;1.43;;;;;;;;;;5116283;28;20446;-65
2023/10/07 05:04:04;;;;;;;1.90;1.80;;;;;;;;;;5117789;28;20441;-66
2023/10/07 05:06:30;;;;;;;0.90;0.90;;;;;;;;;;5116708;28;20939;-65
2023/10/07 05:08:57;;;;;;;0.80;0.80;;;;;;;;;;5117019;28;20493;-65
2023/10/07 05:11:26;;;;;;;0.80;0.80;;;;;;;;;;5116856;28;20509;-65
2023/10/07 05:13:55;;;;;;;0.70;0.70;;;;;;;;;;5117328;28;20474;-65
2023/10/07 05:16:22;;;;;;;0.90;0.90;;;;;;;;;;5117544;28;20442;-65
2023/10/07 05:18:49;;;;;;;0.83;0.83;;;;;;;;;;5117164;28;21032;-65
2023/10/07 05:21:19;;;;;;;0.90;0.90;;;;;;;;;;5116732;28;20434;-65
2023/10/07 05:23:47;;;;;;;1.83;1.73;;;;;;;;;;5117031;28;20532;-65
2023/10/07 05:26:17;;;;;;;0.70;0.70;;;;;;;;;;5116617;28;20446;-65
2023/10/07 05:28:44;;;;;;;0.80;0.80;;;;;;;;;;5117096;28;20540;-65
2023/10/07 05:31:14;;;;;;;1.33;1.23;;;;;;;;;;5116827;28;20481;-65
2023/10/07 05:33:43;;;;;;;0.80;0.80;;;;;;;;;;5116309;28;20502;-65
2023/10/07 05:36:13;;;;;;;1.07;1.00;;;;;;;;;;5116700;28;20430;-65
2023/10/07 05:38:44;;;;;;;1.40;1.30;;;;;;;;;;5116874;28;20453;-65
2023/10/07 05:41:14;;;;;;;1.87;1.27;;;;;;;;;;5116383;28;20419;-65
2023/10/07 05:43:43;;;;;;;0.70;0.70;;;;;;;;;;5116680;28;20427;-65
2023/10/07 05:46:10;;;;;;;1.20;1.20;;;;;;;;;;5116265;28;20441;-68
2023/10/07 05:48:38;;;;;;;0.90;0.90;;;;;;;;;;5115929;28;20462;-65
2023/10/07 05:51:07;;;;;;;0.90;0.90;;;;;;;;;;5116385;28;20449;-66
2023/10/07 05:53:36;;;;;;;0.90;0.90;;;;;;;;;;5116008;28;20442;-66
2023/10/07 05:56:06;;;;;;;1.27;1.27;;;;;;;;;;5116008;28;20439;-65
2023/10/07 05:58:33;;;;;;;0.87;0.80;;;;;;;;;;5116385;28;20481;-65
2023/10/07 06:01:01;;;;;;;0.93;0.93;;;;;;;;;;5115943;28;20475;-64
2023/10/07 06:03:29;;;;;;;0.80;0.80;;;;;;;;;;5116276;28;20473;-65
2023/10/07 06:05:57;;;;;;;1.23;1.13;;;;;;;;;;5115537;28;20442;-62
2023/10/07 06:08:26;;;;;;;1.40;1.30;;;;;;;;;;5115708;28;20437;-64
2023/10/07 06:10:54;;;;;;;0.90;0.90;;;;;;;;;;5115488;28;20432;-64
2023/10/07 06:13:23;;;;;;;1.43;1.20;;;;;;;;;;5115540;28;20483;-64
2023/10/07 06:15:50;;;;;;;0.90;0.90;;;;;;;;;;5116473;28;20438;-64
2023/10/07 06:18:18;;;;;;;1.43;1.33;;;;;;;;;;5116096;28;20517;-64
2023/10/07 06:20:47;;;;;;;0.83;0.83;;;;;;;;;;5115920;28;20442;-77
2023/10/07 06:23:15;;;;;;;0.87;0.87;;;;;;;;;;5115649;28;20452;-65
2023/10/07 06:25:48;;;;;;;0.80;0.80;;;;;;;;;;5115075;28;20446;-64
2023/10/07 06:28:24;;;;;;;1.07;0.97;;;;;;;;;;5115645;28;20818;-64
2023/10/07 06:30:56;;;;;;;1.43;1.33;;;;;;;;;;5115569;28;20425;-64
2023/10/07 06:33:26;;;;;;;2.40;1.00;;;;;;;;;;5115614;28;20561;-65
2023/10/07 06:35:54;;;;;;;0.80;0.80;;;;;;;;;;5115548;28;20489;-65
2023/10/07 06:38:22;;;;;;;1.23;1.23;;;;;;;;;;5115356;28;20528;-64
2023/10/07 06:40:53;;;;;;;0.83;0.80;;;;;;;;;;5115606;28;20927;-64
2023/10/07 06:43:21;;;;;;;0.90;0.90;;;;;;;;;;5115551;28;20765;-64
2023/10/07 06:45:49;;;;;;;6.93;3.00;;;;;;;;;;5114810;28;20442;-64
2023/10/07 06:48:23;;;;;;;0.80;0.80;;;;;;;;;;5114847;28;20557;-65
2023/10/07 06:50:52;;;;;;;1.40;1.30;;;;;;;;;;5115532;28;20468;-64
2023/10/07 06:53:22;;;;;;;1.10;1.00;;;;;;;;;;5114682;28;20487;-65
2023/10/07 06:55:51;;;;;;;0.80;0.80;;;;;;;;;;5115004;28;20446;-65
2023/10/07 06:58:22;;;;;;;1.03;1.00;;;;;;;;;;5115096;28;20450;-65
2023/10/07 07:00:55;;;;;;;1.50;1.20;;;;;;;;;;5115538;28;20419;-64
2023/10/07 07:03:25;;;;;;;2.10;2.00;;;;;;;;;;5114951;28;20434;-64
2023/10/07 07:05:53;;;;;;;1.73;1.63;;;;;;;;;;5114600;28;20525;-64
2023/10/07 07:08:22;;;;;;;0.90;0.90;;;;;;;;;;5114675;28;20443;-64
2023/10/07 07:10:55;;;;;;;0.90;0.90;;;;;;;;;;5114686;28;20795;-64
2023/10/07 07:13:27;;;;;;;3.43;2.77;;;;;;;;;;5114688;28;20939;-64
2023/10/07 07:15:57;;;;;;;0.90;0.90;;;;;;;;;;5114525;28;20449;-64
2023/10/07 07:18:26;;;;;;;1.33;1.33;;;;;;;;;;5114701;28;20427;-64
2023/10/07 07:23:40;;;;;;;0.97;0.97;;;;;;;;;;5102548;28;20445;-64
2023/10/07 07:26:10;;;;;;;0.80;0.80;;;;;;;;;;5114325;28;20824;-64
2023/10/07 07:28:42;;;;;;;1.30;1.20;;;;;;;;;;5113924;28;20460;-65
2023/10/07 07:31:11;;;;;;;1.13;1.13;;;;;;;;;;5114352;28;20419;-64
2023/10/07 07:33:41;;;;;;;0.80;0.80;;;;;;;;;;5113741;28;20565;-64
2023/10/07 07:36:18;;;;;;;0.90;0.90;;;;;;;;;;5114374;28;20561;-64
2023/10/07 07:38:47;;;;;;;0.90;0.90;;;;;;;;;;5114052;28;20424;-65
2023/10/07 07:41:29;;;;;;;1.30;1.20;;;;;;;;;;5114084;28;20439;-65
2023/10/07 07:43:59;;;;;;;1.10;1.03;;;;;;;;;;5114356;28;20513;-64
2023/10/07 07:46:29;;;;;;;1.53;1.43;;;;;;;;;;5113917;28;20429;-64
2023/10/07 07:49:05;;;;;;;1.20;1.10;;;;;;;;;;5114164;28;20480;-64
2023/10/07 07:51:37;;;;;;;0.80;0.80;;;;;;;;;;5113827;28;20430;-64
2023/10/07 07:54:06;;;;;;;3.00;1.10;;;;;;;;;;5113665;28;20429;-64
2023/10/07 07:56:34;;;;;;;1.33;1.33;;;;;;;;;;5113774;28;20486;-65
2023/10/07 07:59:13;;;;;;;1.37;1.27;;;;;;;;;;5113998;28;20449;-64
2023/10/07 08:01:44;;;;;;;0.90;0.90;;;;;;;;;;5113746;28;20514;-64
2023/10/07 08:04:17;;;;;;;1.57;1.47;;;;;;;;;;5113703;28;20446;-65
2023/10/07 08:06:46;;;;;;;0.90;0.90;;;;;;;;;;5096056;28;20543;-65
2023/10/07 08:09:19;;;;;;;2.40;2.07;;;;;;;;;;5092931;28;20559;-66
2023/10/07 08:11:46;;;;;;;2.00;1.87;;;;;;;;;;5093812;28;20558;-68
2023/10/07 08:14:14;;;;;;;0.90;0.90;;;;;;;;;;5093366;28;20450;-66
2023/10/07 08:16:50;;;;;;;0.87;0.87;;;;;;;;;;5093504;28;20525;-66
2023/10/07 08:19:20;;;;;;;0.73;0.73;;;;;;;;;;5093305;28;20431;-66
2023/10/07 08:21:51;;;;;;;0.80;0.80;;;;;;;;;;5093154;28;20437;-66
2023/10/07 08:24:19;;;;;;;1.00;1.00;;;;;;;;;;5093246;28;20427;-66
2023/10/07 08:26:48;;;;;;;0.70;0.70;;;;;;;;;;5092511;28;20444;-66
2023/10/07 08:29:31;;;;;;;0.80;0.80;;;;;;;;;;5093076;28;20918;-66
2023/10/07 08:31:59;;;;;;;1.67;1.47;;;;;;;;;;5092804;28;20436;-66
2023/10/07 08:34:34;;;;;;;1.20;1.13;;;;;;;;;;5092291;28;20526;-66
2023/10/07 08:37:02;;;;;;;1.10;1.10;;;;;;;;;;5093031;28;20792;-66
2023/10/07 08:39:44;;;;;;;0.80;0.80;;;;;;;;;;5092654;28;20957;-67
2023/10/07 08:42:14;;;;;;;1.37;1.27;;;;;;;;;;5093524;28;20488;-74
2023/10/07 08:44:41;;;;;;;0.80;0.80;;;;;;;;;;5092983;28;20441;-68
2023/10/07 08:47:11;;;;;;;1.00;1.00;;;;;;;;;;5092751;28;20497;-66
2023/10/07 08:49:43;;;;;;;1.30;1.30;;;;;;;;;;5092794;28;20480;-66
2023/10/07 08:52:10;;;;;;;0.80;0.80;;;;;;;;;;5092883;28;20459;-67
2023/10/07 08:54:38;;;;;;;0.80;0.80;;;;;;;;;;5092775;28;20537;-66
2023/10/07 08:57:09;;;;;;;1.40;1.30;;;;;;;;;;5093078;28;20440;-66
2023/10/07 08:59:40;;;;;;;1.57;1.47;;;;;;;;;;5092211;28;20485;-67
2023/10/07 09:02:17;;;;;;;0.70;0.70;;;;;;;;;;5092992;28;20705;-65
2023/10/07 09:04:45;;;;;;;1.83;1.20;;;;;;;;;;5092345;28;20913;-67
2023/10/07 09:07:12;;;;;;;0.90;0.90;;;;;;;;;;5092948;28;20525;-67
2023/10/07 09:09:43;;;;;;;1.07;1.07;;;;;;;;;;5092261;28;20439;-67
2023/10/07 09:12:14;;;;;;;0.70;0.70;;;;;;;;;;5093201;28;20416;-67
2023/10/07 09:14:47;;;;;;;1.47;0.90;;;;;;;;;;5092235;28;20453;-66
2023/10/07 09:17:15;;;;;;;1.77;1.67;;;;;;;;;;5092701;28;20439;-67
2023/10/07 09:19:47;;;;;;;1.23;1.23;;;;;;;;;;5091983;28;20459;-63
2023/10/07 09:22:18;;;;;;;0.80;0.80;;;;;;;;;;5092801;28;20450;-66
2023/10/07 09:24:45;;;;;;;0.90;0.90;;;;;;;;;;5092814;28;20447;-66
2023/10/07 09:27:14;;;;;;;0.97;0.90;;;;;;;;;;5092175;28;20457;-66
2023/10/07 09:29:45;;;;;;;0.77;0.77;;;;;;;;;;5092435;28;20446;-64
2023/10/07 09:32:21;;;;;;;0.70;0.70;;;;;;;;;;5092245;28;20614;-67
2023/10/07 09:34:48;;;;;;;1.40;1.30;;;;;;;;;;5092747;28;20465;-67
2023/10/07 09:37:21;;;;;;;0.90;0.90;;;;;;;;;;5092120;28;20833;-70
2023/10/07 09:39:55;;;;;;;2.83;2.73;;;;;;;;;;5092452;28;20438;-65
2023/10/07 09:42:35;;;;;;;0.70;0.70;;;;;;;;;;5092187;28;20923;-64
2023/10/07 09:45:09;;;;;;;5.13;2.40;;;;;;;;;;5092005;28;20424;-68
2023/10/07 09:47:38;;;;;;;0.80;0.80;;;;;;;;;;5094997;28;20513;-65
2023/10/07 09:50:19;;;;;;;1.17;1.07;;;;;;;;;;5095892;28;20474;-65
2023/10/07 09:52:51;;;;;;;0.73;0.73;;;;;;;;;;5096409;28;20471;-66
2023/10/07 09:55:31;;;;;;;1.07;1.07;;;;;;;;;;5095750;28;20499;-65
2023/10/07 09:58:07;;;;;;;0.83;0.83;;;;;;;;;;5095708;28;20430;-65
2023/10/07 10:00:41;;;;;;;0.70;0.70;;;;;;;;;;5095593;28;20477;-66
2023/10/07 10:03:28;;;;;;;0.70;0.70;;;;;;;;;;5095917;28;20841;-65
2023/10/07 10:06:03;;;;;;;0.70;0.70;;;;;;;;;;5095573;28;20830;-65
2023/10/07 10:08:44;;;;;;;0.70;0.70;;;;;;;;;;5096041;28;20480;-65
2023/10/07 10:11:30;;;;;;;0.90;0.90;;;;;;;;;;5095523;28;20825;-65
2023/10/07 10:14:14;;;;;;;0.80;0.80;;;;;;;;;;5095739;28;20468;-65
2023/10/07 10:16:45;;;;;;;0.70;0.70;;;;;;;;;;5095379;28;20916;-65
2023/10/07 10:19:17;;;;;;;0.70;0.70;;;;;;;;;;5095189;28;20424;-65
2023/10/07 10:21:45;;;;;;;0.70;0.70;;;;;;;;;;5095001;28;20432;-65
2023/10/07 10:24:18;;;;;;;0.70;0.70;;;;;;;;;;5095545;28;20465;-66
2023/10/07 10:26:45;;;;;;;1.57;1.47;;;;;;;;;;5095527;28;20416;-65
2023/10/07 10:29:22;;;;;;;0.70;0.70;;;;;;;;;;5095560;28;20483;-67
2023/10/07 10:31:50;;;;;;;0.73;0.73;;;;;;;;;;5095361;28;20441;-67
2023/10/07 10:34:20;;;;;;;2.83;1.20;;;;;;;;;;5094980;28;20531;-66
2023/10/07 10:36:49;;;;;;;0.80;0.80;;;;;;;;;;5094635;28;20442;-66
2023/10/07 10:39:22;;;;;;;0.80;0.80;;;;;;;;;;5095343;28;20447;-66
2023/10/07 10:41:49;;;;;;;0.70;0.70;;;;;;;;;;5094828;28;21022;-66
2023/10/07 10:44:17;;;;;;;0.70;0.70;;;;;;;;;;5094924;28;20436;-66
2023/10/07 10:46:46;;;;;;;0.70;0.70;;;;;;;;;;5094876;28;20476;-66
2023/10/07 10:49:15;;;;;;;0.70;0.70;;;;;;;;;;5094388;28;20478;-66
2023/10/07 10:51:45;;;;;;;0.70;0.70;;;;;;;;;;5094743;28;20440;-66
2023/10/07 10:54:17;;;;;;;0.80;0.80;;;;;;;;;;5094717;28;20483;-66
2023/10/07 10:56:50;;;;;;;0.70;0.70;;;;;;;;;;5094833;28;20439;-66
2023/10/07 10:59:18;;;;;;;0.70;0.70;;;;;;;;;;5095152;28;20542;-66
2023/10/07 11:01:48;;;;;;;0.70;0.70;;;;;;;;;;5095014;28;20455;-66
2023/10/07 11:04:15;;;;;;;0.70;0.70;;;;;;;;;;5094526;28;20513;-66
2023/10/07 11:06:42;;;;;;;0.70;0.70;;;;;;;;;;5094684;28;20534;-65
2023/10/07 11:09:17;;;;;;;0.70;0.70;;;;;;;;;;5094778;28;20442;-66
2023/10/07 11:11:48;;;;;;;0.70;0.70;;;;;;;;;;5094328;28;20424;-66
2023/10/07 11:14:20;;;;;;;0.70;0.70;;;;;;;;;;5094495;28;20573;-65
2023/10/07 11:16:48;;;;;;;0.70;0.70;;;;;;;;;;5094736;28;20426;-65
2023/10/07 11:19:16;;;;;;;0.80;0.80;;;;;;;;;;5094560;28;20489;-65
2023/10/07 11:21:44;;;;;;;0.70;0.70;;;;;;;;;;5094029;28;20963;-67
2023/10/07 11:24:15;;;;;;;0.70;0.70;;;;;;;;;;5094560;28;20443;-66
2023/10/07 11:26:46;;;;;;;0.70;0.70;;;;;;;;;;5094468;28;20760;-66
2023/10/07 11:29:14;;;;;;;0.80;0.80;;;;;;;;;;5094438;28;20797;-66
2023/10/07 11:31:43;;;;;;;1.10;1.10;;;;;;;;;;5094061;28;20434;-64
2023/10/07 11:34:10;;;;;;;0.70;0.70;;;;;;;;;;5093773;28;20483;-64
2023/10/07 11:36:44;;;;;;;0.70;0.70;;;;;;;;;;5094088;28;20559;-65
2023/10/07 11:39:13;;;;;;;0.70;0.70;;;;;;;;;;5094081;28;20799;-64
2023/10/07 11:41:41;;;;;;;0.70;0.70;;;;;;;;;;5094030;28;20448;-65
2023/10/07 11:44:10;;;;;;;0.90;0.90;;;;;;;;;;5092945;28;20447;-64
2023/10/07 11:46:38;;;;;;;0.77;0.77;;;;;;;;;;5093261;28;20534;-64
2023/10/07 11:49:07;;;;;;;0.70;0.70;;;;;;;;;;5093393;28;21009;-64
2023/10/07 11:51:34;;;;;;;0.70;0.70;;;;;;;;;;5093179;28;20989;-64
2023/10/07 11:54:02;;;;;;;1.53;1.00;;;;;;;;;;5093743;28;20925;-65
2023/10/07 11:56:29;;;;;;;1.40;1.20;;;;;;;;;;5093377;28;20497;-66
2023/10/07 11:58:58;;;;;;;1.40;1.30;;;;;;;;;;5093397;28;20535;-66
2023/10/07 12:01:27;;;;;;;0.70;0.70;;;;;;;;;;5093454;28;20448;-65
2023/10/07 12:03:54;;;;;;;0.80;0.80;;;;;;;;;;5093185;28;20454;-65
2023/10/07 12:06:24;;;;;;;0.70;0.70;;;;;;;;;;5093830;28;20475;-65
2023/10/07 12:08:52;;;;;;;0.70;0.70;;;;;;;;;;5093298;28;20811;-66
2023/10/07 12:11:19;;;;;;;1.33;1.17;;;;;;;;;;5093322;28;20440;-66
2023/10/07 12:13:47;;;;;;;0.70;0.70;;;;;;;;;;5093136;28;20989;-66
2023/10/07 12:16:16;;;;;;;1.30;1.20;;;;;;;;;;5092938;28;20444;-65
2023/10/07 12:18:45;;;;;;;0.70;0.70;;;;;;;;;;5093505;28;20544;-65
2023/10/07 12:21:13;;;;;;;1.20;1.10;;;;;;;;;;5093221;28;20501;-65
2023/10/07 12:23:43;;;;;;;0.90;0.90;;;;;;;;;;5093125;28;20811;-64
2023/10/07 12:26:13;;;;;;;0.70;0.70;;;;;;;;;;5093337;28;20462;-64
2023/10/07 12:28:41;;;;;;;0.70;0.70;;;;;;;;;;5092814;28;20443;-65
2023/10/07 12:31:12;;;;;;;0.93;0.93;;;;;;;;;;5092442;28;20847;-64
2023/10/07 12:33:39;;;;;;;0.73;0.73;;;;;;;;;;5092640;28;20475;-65
2023/10/07 12:36:14;;;;;;;0.70;0.70;;;;;;;;;;5093125;28;20439;-64
2023/10/07 12:38:43;;;;;;;0.70;0.70;;;;;;;;;;5092521;28;20443;-65
2023/10/07 12:41:10;;;;;;;0.70;0.70;;;;;;;;;;5092936;28;20551;-65
2023/10/07 12:43:38;;;;;;;0.70;0.70;;;;;;;;;;5092626;28;20497;-64
2023/10/07 12:46:09;;;;;;;1.00;1.00;;;;;;;;;;5092670;28;20442;-64
2023/10/07 12:48:37;;;;;;;2.53;2.43;;;;;;;;;;5093123;28;20805;-64
2023/10/07 12:51:04;;;;;;;0.73;0.73;;;;;;;;;;5092944;28;20439;-65
2023/10/07 12:53:33;;;;;;;0.87;0.87;;;;;;;;;;5092218;28;20967;-65
2023/10/07 12:56:12;;;;;;;1.73;1.63;;;;;;;;;;5092978;28;20519;-64
2023/10/07 12:58:42;;;;;;;0.70;0.70;;;;;;;;;;5092005;28;20537;-64
2023/10/07 13:01:12;;;;;;;0.70;0.70;;;;;;;;;;5092569;28;20941;-64
2023/10/07 13:03:43;;;;;;;0.70;0.70;;;;;;;;;;5092612;28;20450;-65
2023/10/07 13:06:11;;;;;;;4.40;1.63;;;;;;;;;;5092825;28;20424;-64
2023/10/07 13:08:39;;;;;;;0.70;0.70;;;;;;;;;;5092459;28;20445;-64
2023/10/07 13:11:12;;;;;;;0.80;0.80;;;;;;;;;;5092786;28;20450;-65
2023/10/07 13:13:39;;;;;;;0.70;0.70;;;;;;;;;;5092425;28;20471;-65
2023/10/07 13:16:10;;;;;;;1.60;1.50;;;;;;;;;;5092354;28;20530;-65
2023/10/07 13:18:38;;;;;;;0.70;0.70;;;;;;;;;;5092026;28;20443;-65
2023/10/07 13:21:13;;;;;;;0.70;0.70;;;;;;;;;;5093200;28;20443;-65
2023/10/07 13:23:40;;;;;;;0.80;0.80;;;;;;;;;;5096562;28;20431;-64
2023/10/07 13:26:09;;;;;;;1.23;1.23;;;;;;;;;;5096311;28;20522;-65
2023/10/07 13:28:39;;;;;;;1.63;1.53;;;;;;;;;;5096382;28;20446;-65
2023/10/07 13:31:07;;;;;;;1.00;1.00;;;;;;;;;;5096311;28;20443;-64
2023/10/07 13:33:36;;;;;;;0.70;0.70;;;;;;;;;;5095905;28;20463;-65
2023/10/07 13:36:03;;;;;;;0.80;0.80;;;;;;;;;;5096462;28;20526;-64
2023/10/07 13:38:30;;;;;;;1.30;0.87;;;;;;;;;;5096098;28;20436;-64
2023/10/07 13:40:58;;;;;;;0.73;0.73;;;;;;;;;;5096441;28;20802;-65
2023/10/07 13:43:26;;;;;;;0.70;0.70;;;;;;;;;;5095760;28;20538;-64
2023/10/07 13:45:55;;;;;;;0.70;0.70;;;;;;;;;;5096321;28;20497;-64
2023/10/07 13:48:23;;;;;;;0.70;0.70;;;;;;;;;;5096334;28;20502;-64
2023/10/07 13:50:51;;;;;;;0.70;0.70;;;;;;;;;;5096385;28;20443;-64
2023/10/07 13:53:28;;;;;;;0.70;0.70;;;;;;;;;;5095160;28;20978;-64
2023/10/07 13:55:58;;;;;;;0.80;0.80;;;;;;;;;;5095624;28;20468;-64
2023/10/07 13:58:25;;;;;;;0.70;0.70;;;;;;;;;;5095805;28;20505;-64
2023/10/07 14:00:53;;;;;;;0.70;0.70;;;;;;;;;;5095266;28;20526;-64
2023/10/07 14:03:26;;;;;;;0.77;0.77;;;;;;;;;;5095323;28;21048;-64
2023/10/07 14:05:55;;;;;;;0.70;0.70;;;;;;;;;;5095459;28;20468;-65
2023/10/07 14:08:24;;;;;;;0.70;0.70;;;;;;;;;;5095143;28;20439;-66
2023/10/07 14:10:52;;;;;;;0.70;0.70;;;;;;;;;;5095144;28;20444;-65
2023/10/07 14:13:19;;;;;;;1.57;1.23;;;;;;;;;;5095838;28;20520;-65
2023/10/07 14:15:49;;;;;;;0.70;0.70;;;;;;;;;;5095732;28;20798;-66
2023/10/07 14:18:19;;;;;;;0.70;0.70;;;;;;;;;;5095703;28;20444;-65
2023/10/07 14:20:53;;;;;;;0.70;0.70;;;;;;;;;;5095870;28;20972;-65
2023/10/07 14:23:20;;;;;;;0.80;0.80;;;;;;;;;;5095819;28;20432;-65
2023/10/07 14:25:49;;;;;;;0.80;0.80;;;;;;;;;;5095225;28;20448;-65
2023/10/07 14:28:16;;;;;;;0.80;0.80;;;;;;;;;;5095457;28;20483;-65
2023/10/07 14:30:44;;;;;;;0.70;0.70;;;;;;;;;;5094912;28;20440;-65
2023/10/07 14:33:12;;;;;;;1.20;1.20;;;;;;;;;;5095009;28;20780;-65
2023/10/07 14:35:40;;;;;;;0.70;0.70;;;;;;;;;;5095371;28;20486;-65
2023/10/07 14:38:09;;;;;;;0.70;0.70;;;;;;;;;;5094993;28;20558;-65
2023/10/07 14:40:37;;;;;;;3.37;1.10;;;;;;;;;;5095344;28;20446;-65
2023/10/07 14:43:05;;;;;;;1.00;1.00;;;;;;;;;;5095072;28;20442;-65
2023/10/07 14:45:34;;;;;;;0.70;0.70;;;;;;;;;;5095014;28;20442;-65
2023/10/07 14:48:02;;;;;;;0.70;0.70;;;;;;;;;;5094875;28;20471;-65
2023/10/07 14:50:29;;;;;;;0.70;0.70;;;;;;;;;;5094528;28;20431;-65
2023/10/07 14:52:57;;;;;;;0.77;0.77;;;;;;;;;;5094807;28;20442;-65
2023/10/07 14:55:26;;;;;;;0.90;0.90;;;;;;;;;;5094867;28;20485;-65
2023/10/07 14:57:53;;;;;;;0.70;0.70;;;;;;;;;;5095055;28;20526;-65
2023/10/07 15:00:21;;;;;;;0.87;0.87;;;;;;;;;;5094275;28;20442;-65
2023/10/07 15:02:48;;;;;;;0.80;0.80;;;;;;;;;;5094454;28;20447;-65
2023/10/07 15:05:16;;;;;;;0.80;0.80;;;;;;;;;;5094387;28;20452;-65
2023/10/07 15:07:44;;;;;;;0.70;0.70;;;;;;;;;;5094663;28;20455;-65
2023/10/07 15:10:11;;;;;;;0.70;0.70;;;;;;;;;;5094289;28;20448;-65